Time;durP1;ratioP1;P1;durP2;ratioP2;P2;SDS_P1;SDS_P2;PMS_P1;PMS_P2;Temp;Humidity;BMP_temperature;BMP_pressure;BME280_temperature;BME280_humidity;BME280_pressure;Samples;Min_cycle;Max_cycle;Signal;HPM_P1;HPM_P2
2023/07/07 00:01:07;;;;;;;5.50;2.85;;;14.60;99.90;;;;;;4994474;28;20049;-69
2023/07/07 00:03:34;;;;;;;4.45;2.40;;;14.70;99.90;;;;;;5000648;28;20037;-69
2023/07/07 00:06:00;;;;;;;6.40;2.45;;;14.50;99.90;;;;;;5001391;28;20083;-69
2023/07/07 00:08:26;;;;;;;4.65;2.60;;;14.50;99.90;;;;;;5008343;28;20040;-69
2023/07/07 00:10:53;;;;;;;7.63;2.67;;;14.50;99.90;;;;;;4985617;28;20450;-69
2023/07/07 00:13:20;;;;;;;5.13;2.72;;;14.40;99.90;;;;;;5002727;28;20044;-69
2023/07/07 00:15:46;;;;;;;6.00;2.65;;;14.40;99.90;;;;;;5022177;28;20049;-69
2023/07/07 00:18:14;;;;;;;5.55;2.90;;;14.40;99.90;;;;;;5029964;28;20503;-69
2023/07/07 00:20:40;;;;;;;4.97;2.58;;;14.40;99.90;;;;;;5004076;28;20443;-69
2023/07/07 00:23:06;;;;;;;;;;;14.30;99.90;;;;;;5021607;28;20129;-69
2023/07/07 00:25:32;;;;;;;6.30;2.28;;;14.30;99.90;;;;;;5019583;28;20353;-69
2023/07/07 00:27:58;;;;;;;5.68;2.58;;;14.30;99.90;;;;;;5024556;28;20037;-69
2023/07/07 00:30:23;;;;;;;4.35;2.53;;;14.20;99.90;;;;;;5009641;28;20483;-69
2023/07/07 00:32:49;;;;;;;6.63;3.00;;;14.20;99.90;;;;;;5016326;28;20038;-69
2023/07/07 00:35:15;;;;;;;5.82;3.13;;;14.10;99.90;;;;;;5002745;28;20046;-69
2023/07/07 00:37:43;;;;;;;6.22;2.92;;;14.20;99.90;;;;;;5024118;28;20045;-69
2023/07/07 00:40:09;;;;;;;6.10;2.88;;;14.10;99.90;;;;;;5025277;28;20495;-70
2023/07/07 00:42:35;;;;;;;;;;;14.10;99.90;;;;;;5014136;28;20069;-69
2023/07/07 00:45:15;;;;;;;3.72;2.67;;;14.10;99.90;;;;;;5002432;28;19964;-69
2023/07/07 00:47:51;;;;;;;3.78;2.40;;;14.10;99.90;;;;;;5006729;28;20049;-69
2023/07/07 00:50:20;;;;;;;6.75;2.35;;;14.10;99.90;;;;;;5011748;28;20514;-70
2023/07/07 00:52:46;;;;;;;5.30;2.90;;;14.10;99.90;;;;;;5000335;28;20058;-69
2023/07/07 00:55:27;;;;;;;4.45;2.50;;;14.10;99.90;;;;;;5010536;28;20041;-69
2023/07/07 00:57:53;;;;;;;6.28;2.70;;;14.10;99.90;;;;;;5001135;28;20053;-70
2023/07/07 01:00:19;;;;;;;5.95;2.92;;;14.00;99.90;;;;;;5029895;28;20041;-69
2023/07/07 01:02:55;;;;;;;7.53;2.90;;;14.00;99.90;;;;;;5006177;28;20045;-69
2023/07/07 01:05:23;;;;;;;7.03;3.22;;;14.00;99.90;;;;;;5025501;28;20064;-69
2023/07/07 01:07:51;;;;;;;8.02;2.97;;;13.90;99.90;;;;;;5006957;28;20458;-69
2023/07/07 01:10:19;;;;;;;5.50;2.97;;;13.90;99.90;;;;;;5025528;28;20495;-69
2023/07/07 01:12:46;;;;;;;6.47;2.92;;;13.80;99.90;;;;;;5033613;28;20640;-69
2023/07/07 01:15:12;;;;;;;5.65;2.65;;;13.80;99.90;;;;;;5024321;28;20562;-69
2023/07/07 01:18:08;;;;;;;6.22;2.58;;;13.70;99.90;;;;;;5019518;28;20038;-69
2023/07/07 01:20:45;;;;;;;6.18;2.67;;;13.70;99.90;;;;;;5001405;28;20037;-69
2023/07/07 01:23:39;;;;;;;7.70;2.90;;;13.70;99.90;;;;;;5023794;28;20042;-69
2023/07/07 01:26:14;;;;;;;5.32;2.38;;;13.60;99.90;;;;;;4993661;28;20045;-69
2023/07/07 01:29:03;;;;;;;5.40;2.90;;;13.60;99.90;;;;;;5010245;28;20156;-69
2023/07/07 01:31:32;;;;;;;4.63;2.67;;;13.60;99.90;;;;;;5004102;28;20096;-69
2023/07/07 01:34:00;;;;;;;7.78;3.20;;;13.60;99.90;;;;;;4990978;28;20038;-69
2023/07/07 01:36:26;;;;;;;5.30;2.80;;;13.60;99.90;;;;;;5023644;28;20048;-69
2023/07/07 01:38:52;;;;;;;5.38;2.83;;;13.60;99.90;;;;;;4995581;28;20034;-69
2023/07/07 01:41:38;;;;;;;4.53;2.80;;;13.60;99.90;;;;;;5015288;28;20056;-69
2023/07/07 01:44:16;;;;;;;6.43;3.15;;;13.60;99.90;;;;;;5001434;28;20045;-69
2023/07/07 01:46:51;;;;;;;8.48;3.58;;;13.60;99.90;;;;;;5010681;28;20399;-69
2023/07/07 01:50:12;;;;;;;6.22;3.67;;;13.60;99.90;;;;;;5013157;28;20044;-69
2023/07/07 01:52:53;;;;;;;5.13;3.30;;;13.60;99.90;;;;;;4963298;28;20762;-69
2023/07/07 01:55:23;;;;;;;7.43;3.72;;;13.60;99.90;;;;;;5013779;28;20113;-69
2023/07/07 01:57:54;;;;;;;6.22;3.45;;;13.60;99.90;;;;;;5028442;28;20073;-70
2023/07/07 02:00:22;;;;;;;6.65;3.47;;;13.50;99.90;;;;;;5012871;28;20080;-69
2023/07/07 02:02:47;;;;;;;6.95;3.30;;;13.50;99.90;;;;;;5010544;28;20046;-70
2023/07/07 02:05:14;;;;;;;6.20;3.80;;;13.50;99.90;;;;;;5012281;28;20052;-69
2023/07/07 02:07:40;;;;;;;6.45;3.50;;;13.50;99.90;;;;;;5010198;28;20054;-69
2023/07/07 02:10:06;;;;;;;6.88;3.83;;;13.50;99.90;;;;;;5027628;28;20331;-69
2023/07/07 02:12:32;;;;;;;;;;;13.40;99.90;;;;;;5014734;28;20040;-69
2023/07/07 02:14:57;;;;;;;8.27;3.70;;;13.40;99.90;;;;;;5026071;28;19932;-70
2023/07/07 02:17:24;;;;;;;7.45;3.50;;;13.40;99.90;;;;;;5014758;28;20518;-69
2023/07/07 02:19:50;;;;;;;6.45;3.53;;;13.40;99.90;;;;;;5006028;28;20062;-69
2023/07/07 02:22:16;;;;;;;;;;;13.30;99.90;;;;;;5009775;28;20230;-69
2023/07/07 02:24:42;;;;;;;5.50;3.40;;;13.30;99.90;;;;;;5013050;28;19923;-69
2023/07/07 02:27:10;;;;;;;7.05;3.40;;;13.30;99.90;;;;;;5027463;28;20053;-69
2023/07/07 02:29:37;;;;;;;9.90;3.80;;;13.30;99.90;;;;;;5025236;28;20041;-69
2023/07/07 02:32:03;;;;;;;8.27;3.85;;;13.30;99.90;;;;;;5006577;28;20052;-69
2023/07/07 02:34:29;;;;;;;9.20;4.28;;;13.40;99.90;;;;;;5029866;28;20059;-69
2023/07/07 02:36:55;;;;;;;6.97;3.97;;;13.40;99.90;;;;;;4994008;28;20483;-69
2023/07/07 02:39:21;;;;;;;11.60;5.25;;;13.40;99.90;;;;;;5013386;28;20049;-69
2023/07/07 02:41:47;;;;;;;8.93;4.63;;;13.50;99.90;;;;;;5011248;28;20064;-69
2023/07/07 02:44:13;;;;;;;9.55;5.45;;;13.50;99.90;;;;;;5034953;28;20045;-69
2023/07/07 02:46:39;;;;;;;;;;;13.50;99.90;;;;;;5013827;28;20040;-69
2023/07/07 02:49:05;;;;;;;13.13;5.40;;;13.50;99.90;;;;;;5033659;28;20366;-69
2023/07/07 02:51:30;;;;;;;10.45;5.57;;;13.50;99.90;;;;;;5012784;28;20069;-69
2023/07/07 02:53:57;;;;;;;10.32;5.32;;;13.50;99.90;;;;;;5011139;28;20049;-69
2023/07/07 02:56:22;;;;;;;8.27;4.57;;;13.50;99.90;;;;;;5027051;28;20059;-69
2023/07/07 02:58:48;;;;;;;13.48;5.10;;;13.60;99.90;;;;;;5002615;28;20046;-69
2023/07/07 03:01:17;;;;;;;10.15;4.32;;;13.60;99.90;;;;;;5021026;28;20041;-69
2023/07/07 03:03:47;;;;;;;8.07;4.82;;;13.60;99.90;;;;;;5025333;28;20125;-69
2023/07/07 03:06:21;;;;;;;8.63;4.40;;;13.60;99.90;;;;;;5027731;28;20068;-69
2023/07/07 03:08:47;;;;;;;7.72;4.70;;;13.60;99.90;;;;;;5003088;28;20133;-69
2023/07/07 03:11:14;;;;;;;;;;;13.60;99.90;;;;;;4991875;28;20088;-69
2023/07/07 03:13:40;;;;;;;9.70;4.57;;;13.60;99.90;;;;;;5009930;28;19972;-69
2023/07/07 03:16:20;;;;;;;8.40;4.45;;;13.60;99.90;;;;;;5011020;28;20384;-69
2023/07/07 03:18:51;;;;;;;11.27;5.25;;;13.60;99.90;;;;;;5011968;28;20065;-69
2023/07/07 03:21:18;;;;;;;7.75;4.57;;;13.70;99.90;;;;;;5026473;28;20435;-69
2023/07/07 03:23:45;;;;;;;7.25;4.90;;;13.60;99.90;;;;;;5001478;28;20447;-69
2023/07/07 03:26:14;;;;;;;9.63;5.10;;;13.60;99.90;;;;;;5006276;22;20041;-67
2023/07/07 03:28:40;;;;;;;7.47;4.93;;;13.60;99.90;;;;;;5032328;28;20059;-67
2023/07/07 03:31:24;;;;;;;9.60;5.28;;;13.60;99.90;;;;;;5057739;28;20032;-67
2023/07/07 03:33:55;;;;;;;9.40;4.78;;;13.70;99.90;;;;;;5032964;28;20045;-69
2023/07/07 03:36:24;;;;;;;6.85;4.80;;;13.60;99.90;;;;;;5059241;28;20028;-68
2023/07/07 03:38:49;;;;;;;9.20;5.40;;;13.60;99.90;;;;;;5043432;28;20060;-69
2023/07/07 03:41:19;;;;;;;9.05;5.90;;;13.60;99.90;;;;;;5032707;28;20541;-68
2023/07/07 03:43:45;;;;;;;10.60;5.78;;;13.70;99.90;;;;;;5031106;28;20075;-68
2023/07/07 03:46:12;;;;;;;10.65;5.82;;;13.70;99.90;;;;;;5039851;28;20073;-69
2023/07/07 03:48:38;;;;;;;9.73;5.22;;;13.70;99.90;;;;;;5057211;28;20053;-68
2023/07/07 03:51:04;;;;;;;9.40;5.13;;;13.70;99.90;;;;;;5034675;28;20578;-68
2023/07/07 03:53:31;;;;;;;10.38;5.93;;;13.70;99.90;;;;;;5034501;28;20100;-68
2023/07/07 03:55:58;;;;;;;9.00;5.78;;;13.70;99.90;;;;;;5037461;28;20109;-69
2023/07/07 03:58:24;;;;;;;;;;;13.60;99.90;;;;;;5056178;28;20041;-69
2023/07/07 04:00:50;;;;;;;9.90;5.57;;;13.60;99.90;;;;;;5048306;28;19923;-68
2023/07/07 04:03:17;;;;;;;10.35;5.30;;;13.70;99.90;;;;;;5040378;28;20513;-68
2023/07/07 04:05:49;;;;;;;10.57;5.90;;;13.70;99.90;;;;;;5056502;28;20048;-69
2023/07/07 04:08:22;;;;;;;11.43;5.90;;;13.70;99.90;;;;;;5034607;28;20059;-68
2023/07/07 04:11:06;;;;;;;11.10;6.18;;;13.70;99.90;;;;;;5055727;28;20081;-68
2023/07/07 04:13:34;;;;;;;13.23;6.35;;;13.70;99.90;;;;;;5034539;28;20040;-68
2023/07/07 04:16:01;;;;;;;13.55;6.57;;;13.70;99.90;;;;;;5033885;28;20466;-68
2023/07/07 04:18:27;;;;;;;10.07;6.05;;;13.70;99.90;;;;;;5040620;28;20047;-68
2023/07/07 04:20:53;;;;;;;12.65;6.50;;;13.70;99.90;;;;;;5037818;28;20041;-68
2023/07/07 04:23:18;;;;;;;11.45;6.50;;;13.80;99.90;;;;;;5035934;28;20414;-68
2023/07/07 04:25:45;;;;;;;12.57;6.18;;;13.80;99.90;;;;;;5056189;28;20044;-68
2023/07/07 04:28:11;;;;;;;;;;;13.80;99.90;;;;;;5058251;28;20435;-69
2023/07/07 04:30:37;;;;;;;10.35;5.70;;;13.90;99.90;;;;;;5057560;28;19916;-68
2023/07/07 04:33:03;;;;;;;16.67;6.88;;;13.90;99.90;;;;;;5050200;28;20067;-69
2023/07/07 04:35:28;;;;;;;9.80;6.13;;;13.90;99.90;;;;;;5040618;28;20071;-68
2023/07/07 04:37:54;;;;;;;11.68;6.75;;;13.90;99.90;;;;;;5037867;28;20471;-68
2023/07/07 04:40:20;;;;;;;10.38;5.93;;;13.90;99.90;;;;;;5050371;28;20511;-68
2023/07/07 04:42:48;;;;;;;11.15;7.03;;;13.90;99.90;;;;;;5050678;28;20123;-68
2023/07/07 04:45:13;;;;;;;9.57;6.22;;;14.00;99.90;;;;;;5057811;28;20505;-68
2023/07/07 04:47:39;;;;;;;11.50;5.97;;;14.00;99.90;;;;;;5039628;28;20044;-68
2023/07/07 04:50:05;;;;;;;13.77;7.17;;;14.00;99.90;;;;;;5039281;28;20449;-68
2023/07/07 04:52:31;;;;;;;12.90;6.68;;;14.10;99.90;;;;;;5050952;28;20307;-68
2023/07/07 04:54:57;;;;;;;10.93;6.18;;;14.10;99.90;;;;;;5033331;28;20041;-68
2023/07/07 04:57:22;;;;;;;12.43;7.03;;;14.20;99.90;;;;;;5041482;28;20135;-68
2023/07/07 04:59:49;;;;;;;12.00;6.47;;;14.20;99.90;;;;;;5051509;28;20057;-68
2023/07/07 05:02:15;;;;;;;15.00;7.72;;;14.30;99.90;;;;;;5058688;28;20456;-68
2023/07/07 05:04:40;;;;;;;15.20;7.68;;;14.40;99.90;;;;;;5038943;28;20131;-68
2023/07/07 05:07:07;;;;;;;13.77;7.40;;;14.40;99.90;;;;;;5057259;28;20087;-69
2023/07/07 05:09:32;;;;;;;11.05;7.38;;;14.50;99.90;;;;;;5031873;28;20072;-68
2023/07/07 05:11:58;;;;;;;9.98;6.78;;;14.50;99.90;;;;;;5037521;28;20510;-68
2023/07/07 05:14:24;;;;;;;9.80;6.38;;;14.60;99.90;;;;;;5055171;28;20036;-68
2023/07/07 05:16:49;;;;;;;11.57;6.82;;;14.60;99.90;;;;;;5032763;28;20049;-68
2023/07/07 05:19:15;;;;;;;10.63;6.55;;;14.70;99.90;;;;;;5040298;28;20041;-68
2023/07/07 05:21:41;;;;;;;12.60;6.97;;;14.70;99.90;;;;;;5034699;28;20206;-68
2023/07/07 05:24:06;;;;;;;12.48;6.95;;;14.80;99.90;;;;;;5039319;28;20453;-68
2023/07/07 05:26:32;;;;;;;12.15;6.43;;;14.80;99.90;;;;;;5035110;28;20048;-68
2023/07/07 05:29:03;;;;;;;11.10;7.47;;;14.90;99.90;;;;;;5055919;28;20048;-69
2023/07/07 05:31:29;;;;;;;11.35;7.00;;;14.90;99.90;;;;;;5040852;28;20044;-68
2023/07/07 05:33:55;;;;;;;12.00;7.45;;;15.00;99.90;;;;;;5041926;28;20037;-68
2023/07/07 05:36:21;;;;;;;14.93;7.57;;;15.00;99.90;;;;;;5056917;28;20460;-68
2023/07/07 05:38:47;;;;;;;14.23;7.00;;;15.10;99.90;;;;;;5042157;28;20115;-68
2023/07/07 05:41:12;;;;;;;10.90;7.07;;;15.10;99.90;;;;;;5040884;28;20044;-68
2023/07/07 05:43:38;;;;;;;12.45;6.75;;;15.20;99.90;;;;;;5039243;28;20393;-68
2023/07/07 05:46:11;;;;;;;13.35;7.78;;;15.20;99.90;;;;;;5043474;28;20178;-68
2023/07/07 05:48:37;;;;;;;12.13;6.75;;;15.30;99.90;;;;;;5044621;28;20121;-68
2023/07/07 05:51:06;;;;;;;11.77;6.75;;;15.40;99.90;;;;;;5026435;28;20442;-69
2023/07/07 05:53:31;;;;;;;13.02;6.57;;;15.50;99.90;;;;;;5036130;28;20102;-67
2023/07/07 05:56:08;;;;;;;12.48;6.88;;;15.50;99.90;;;;;;5056981;28;20114;-68
2023/07/07 05:58:35;;;;;;;11.13;6.28;;;15.60;99.90;;;;;;5045649;28;20044;-69
2023/07/07 06:01:02;;;;;;;14.68;6.45;;;15.60;99.90;;;;;;5060682;28;20112;-69
2023/07/07 06:03:28;;;;;;;13.00;6.07;;;15.70;99.90;;;;;;5045474;28;20052;-68
2023/07/07 06:05:54;;;;;;;;;;;15.70;99.90;;;;;;5042731;28;20041;-68
2023/07/07 06:08:19;;;;;;;9.77;6.43;;;15.80;99.90;;;;;;5044830;28;20098;-68
2023/07/07 06:10:49;;;;;;;11.23;6.57;;;15.90;99.90;;;;;;5021408;28;20052;-68
2023/07/07 06:13:23;;;;;;;12.35;6.55;;;15.90;99.90;;;;;;5042055;28;20049;-68
2023/07/07 06:15:51;;;;;;;8.13;5.43;;;16.00;99.90;;;;;;5041960;28;20508;-68
2023/07/07 06:18:17;;;;;;;9.35;6.10;;;16.10;99.90;;;;;;5055635;28;20048;-68
2023/07/07 06:20:55;;;;;;;9.63;5.85;;;16.20;99.90;;;;;;5037608;28;20040;-68
2023/07/07 06:23:21;;;;;;;14.25;5.60;;;16.20;99.90;;;;;;5063694;28;20506;-68
2023/07/07 06:25:47;;;;;;;10.75;6.38;;;16.30;99.90;;;;;;5061457;28;20044;-68
2023/07/07 06:28:16;;;;;;;;;;;16.40;99.90;;;;;;5059282;28;20064;-68
2023/07/07 06:30:42;;;;;;;7.78;5.40;;;16.40;99.90;;;;;;5042616;28;19924;-68
2023/07/07 06:33:09;;;;;;;11.15;5.43;;;16.50;99.90;;;;;;5051449;28;20514;-68
2023/07/07 06:35:35;;;;;;;9.98;5.47;;;16.60;99.90;;;;;;5061139;28;20049;-68
2023/07/07 06:38:01;;;;;;;11.57;6.45;;;16.70;99.90;;;;;;5051330;28;20567;-68
2023/07/07 06:40:29;;;;;;;;;;;16.80;99.90;;;;;;5059114;28;20125;-69
2023/07/07 06:42:55;;;;;;;11.68;4.88;;;16.90;99.90;;;;;;5050349;28;19925;-68
2023/07/07 06:45:21;;;;;;;7.20;4.53;;;17.00;99.90;;;;;;5036450;28;20044;-68
2023/07/07 06:47:47;;;;;;;8.55;5.32;;;17.00;99.90;;;;;;5038330;28;20091;-68
2023/07/07 06:50:30;;;;;;;8.10;5.18;;;17.10;99.90;;;;;;5065401;28;20574;-68
2023/07/07 06:52:56;;;;;;;9.85;5.20;;;17.20;99.90;;;;;;5060096;28;20089;-68
2023/07/07 06:55:23;;;;;;;8.27;5.03;;;17.30;99.90;;;;;;5040695;28;20049;-69
2023/07/07 06:57:49;;;;;;;7.18;4.32;;;17.30;99.90;;;;;;5035657;28;20506;-68
2023/07/07 07:00:15;;;;;;;7.55;4.07;;;17.40;99.90;;;;;;5044597;28;20483;-68
2023/07/07 07:02:41;;;;;;;7.78;4.35;;;17.50;99.90;;;;;;5037808;28;20059;-68
2023/07/07 07:05:07;;;;;;;;;;;17.60;99.90;;;;;;5060094;28;20124;-68
2023/07/07 07:07:33;;;;;;;5.85;3.85;;;17.60;99.90;;;;;;5058705;28;20016;-68
2023/07/07 07:10:02;;;;;;;8.43;3.95;;;17.70;99.90;;;;;;5054207;28;20052;-68
2023/07/07 07:12:31;;;;;;;7.43;3.97;;;17.80;99.90;;;;;;5043796;28;20374;-68
2023/07/07 07:14:57;;;;;;;6.45;3.30;;;17.90;99.90;;;;;;5037216;28;20403;-68
2023/07/07 07:17:24;;;;;;;7.32;4.25;;;18.00;99.90;;;;;;5035117;28;20457;-68
2023/07/07 07:19:50;;;;;;;5.25;3.13;;;18.10;99.90;;;;;;5041429;28;20374;-68
2023/07/07 07:22:16;;;;;;;;;;;18.20;99.90;;;;;;5060442;28;20039;-68
2023/07/07 07:24:42;;;;;;;7.30;3.22;;;18.20;99.90;;;;;;5055060;28;19916;-68
2023/07/07 07:27:08;;;;;;;4.80;3.05;;;18.30;99.90;;;;;;5054747;28;20469;-68
2023/07/07 07:29:34;;;;;;;5.20;3.08;;;18.40;99.90;;;;;;5040828;28;20413;-68
2023/07/07 07:32:00;;;;;;;6.65;2.67;;;18.50;99.90;;;;;;5037643;28;20047;-68
2023/07/07 07:34:28;;;;;;;12.13;3.08;;;18.60;99.90;;;;;;5059833;28;20072;-68
2023/07/07 07:36:56;;;;;;;5.93;2.50;;;18.70;99.90;;;;;;5049145;28;20162;-68
2023/07/07 07:39:23;;;;;;;4.57;2.00;;;18.80;99.90;;;;;;5049060;28;20116;-68
2023/07/07 07:41:50;;;;;;;8.30;2.67;;;18.80;99.90;;;;;;5039995;28;20091;-68
2023/07/07 07:44:17;;;;;;;8.55;2.45;;;19.00;99.90;;;;;;5028802;28;20048;-68
2023/07/07 07:46:45;;;;;;;4.28;2.10;;;19.00;99.90;;;;;;5037604;28;20044;-68
2023/07/07 07:49:11;;;;;;;3.88;2.38;;;19.10;99.90;;;;;;5061215;28;20132;-68
2023/07/07 07:51:38;;;;;;;6.55;2.45;;;19.20;99.90;;;;;;5040254;28;20033;-68
2023/07/07 07:54:08;;;;;;;6.43;2.75;;;19.30;99.90;;;;;;5040719;28;20033;-68
2023/07/07 07:56:35;;;;;;;5.60;2.33;;;19.40;99.90;;;;;;5044062;28;20077;-67
2023/07/07 07:59:01;;;;;;;4.63;2.33;;;19.50;99.90;;;;;;5060214;28;20063;-68
2023/07/07 08:01:27;;;;;;;4.82;2.38;;;19.60;99.90;;;;;;5034651;28;20392;-68
2023/07/07 08:03:54;;;;;;;4.78;2.45;;;19.70;99.90;;;;;;5057907;28;20041;-68
2023/07/07 08:06:20;;;;;;;5.03;2.25;;;19.80;99.90;;;;;;5053941;28;20060;-68
2023/07/07 08:08:45;;;;;;;4.45;2.33;;;19.80;99.90;;;;;;5033830;28;20060;-68
2023/07/07 08:11:14;;;;;;;4.60;2.40;;;19.90;99.90;;;;;;5045229;28;20077;-68
2023/07/07 08:13:40;;;;;;;5.20;2.20;;;20.00;99.90;;;;;;5063145;28;20087;-68
2023/07/07 08:16:06;;;;;;;;;;;20.10;99.90;;;;;;5052008;28;20112;-68
2023/07/07 08:18:32;;;;;;;6.20;2.10;;;20.20;99.90;;;;;;5025130;28;20038;-68
2023/07/07 08:20:58;;;;;;;4.32;2.03;;;20.30;99.90;;;;;;5057145;28;20091;-67
2023/07/07 08:23:24;;;;;;;4.82;1.95;;;20.40;99.90;;;;;;5042410;28;20090;-69
2023/07/07 08:25:51;;;;;;;6.20;2.03;;;20.40;99.90;;;;;;5058785;28;20471;-69
2023/07/07 08:28:17;;;;;;;4.38;1.90;;;20.50;99.90;;;;;;5036620;28;20402;-69
2023/07/07 08:30:43;;;;;;;9.93;2.92;;;20.60;99.90;;;;;;5060478;28;20036;-68
2023/07/07 08:33:09;;;;;;;4.50;2.05;;;20.70;99.90;;;;;;5042310;28;20064;-68
2023/07/07 08:35:34;;;;;;;6.28;1.98;;;20.80;99.90;;;;;;5040908;28;20532;-69
2023/07/07 08:38:02;;;;;;;5.75;1.83;;;20.90;99.90;;;;;;5053570;28;20049;-69
2023/07/07 08:40:39;;;;;;;6.80;2.22;;;20.90;99.90;;;;;;5042918;28;20127;-68
2023/07/07 08:43:05;;;;;;;5.03;1.80;;;21.00;99.90;;;;;;5047259;28;20505;-69
2023/07/07 08:45:31;;;;;;;;;;;21.10;99.90;;;;;;5045706;28;20073;-68
2023/07/07 08:48:11;;;;;;;5.07;1.85;;;21.20;99.90;;;;;;5033850;28;19921;-68
2023/07/07 08:51:01;;;;;;;4.78;1.90;;;21.30;99.90;;;;;;5066045;28;20086;-68
2023/07/07 08:53:52;;;;;;;7.00;1.70;;;21.40;99.90;;;;;;5012047;28;20037;-68
2023/07/07 08:56:46;;;;;;;4.60;2.20;;;21.50;99.90;;;;;;5052551;28;20047;-68
2023/07/07 08:59:40;;;;;;;3.60;1.63;;;21.60;99.90;;;;;;5035125;28;20064;-68
2023/07/07 09:02:18;;;;;;;2.88;1.45;;;21.60;99.90;;;;;;5042381;28;20418;-69
2023/07/07 09:05:20;;;;;;;4.60;1.95;;;21.70;99.90;;;;;;5057687;28;20128;-69
2023/07/07 09:08:01;;;;;;;4.18;1.50;;;21.80;99.90;;;;;;5061101;28;20044;-69
2023/07/07 09:10:32;;;;;;;2.70;1.45;;;21.90;99.90;;;;;;5037419;28;20381;-69
2023/07/07 09:13:20;;;;;;;7.00;1.77;;;22.00;99.90;;;;;;5028764;28;20068;-69
2023/07/07 09:16:23;;;;;;;3.90;1.70;;;22.10;99.90;;;;;;5035329;28;20056;-68
2023/07/07 09:18:59;;;;;;;3.38;1.45;;;22.30;99.90;;;;;;5052743;28;20057;-68
2023/07/07 09:21:42;;;;;;;3.50;1.40;;;22.40;99.90;;;;;;5040319;28;20051;-69
2023/07/07 09:24:21;;;;;;;4.00;1.55;;;22.50;99.90;;;;;;5043991;28;20044;-69
2023/07/07 09:26:51;;;;;;;3.65;1.35;;;22.60;99.90;;;;;;5053832;28;20219;-68
2023/07/07 09:29:29;;;;;;;2.58;1.35;;;22.70;99.90;;;;;;5041568;28;20288;-68
2023/07/07 09:31:55;;;;;;;3.38;1.20;;;22.80;99.90;;;;;;5066461;28;20048;-69
2023/07/07 09:34:23;;;;;;;3.03;1.33;;;22.90;99.90;;;;;;5053927;28;20105;-70
2023/07/07 09:37:22;;;;;;;4.70;1.58;;;23.00;99.90;;;;;;5027814;28;20478;-69
2023/07/07 09:39:57;;;;;;;3.55;1.58;;;23.10;99.90;;;;;;5050854;28;20047;-70
2023/07/07 09:42:44;;;;;;;2.67;1.30;;;23.30;99.90;;;;;;5033617;28;20131;-70
2023/07/07 09:45:27;;;;;;;3.25;1.30;;;23.30;99.90;;;;;;5031606;28;20041;-69
2023/07/07 09:48:15;;;;;;;5.25;1.67;;;23.40;99.90;;;;;;5046710;28;20220;-70
2023/07/07 09:50:47;;;;;;;3.45;1.58;;;23.50;99.90;;;;;;5053536;28;20522;-70
2023/07/07 09:53:19;;;;;;;3.13;1.50;;;23.60;99.90;;;;;;5043142;28;20085;-70
2023/07/07 09:55:45;;;;;;;2.75;1.45;;;23.60;99.30;;;;;;5062221;28;20047;-69
2023/07/07 09:58:26;;;;;;;3.78;1.52;;;23.60;99.10;;;;;;5023087;28;20045;-69
2023/07/07 10:00:55;;;;;;;5.32;1.52;;;23.70;99.20;;;;;;5022699;28;20154;-69
2023/07/07 10:03:33;;;;;;;5.35;1.80;;;23.80;99.40;;;;;;5047850;28;20033;-70
2023/07/07 10:06:06;;;;;;;3.03;1.48;;;23.80;98.50;;;;;;5029699;28;20487;-69
2023/07/07 10:08:32;;;;;;;4.13;1.60;;;23.90;98.00;;;;;;5064763;28;20356;-70
2023/07/07 10:11:08;;;;;;;;;;;24.00;97.80;;;;;;5031164;28;20049;-70
2023/07/07 10:13:34;;;;;;;3.20;1.60;;;24.00;97.10;;;;;;5043324;28;19917;-70
2023/07/07 10:16:05;;;;;;;;;;;24.10;97.90;;;;;;5049427;28;20045;-70
2023/07/07 10:18:32;;;;;;;2.88;1.35;;;24.10;97.00;;;;;;5057771;28;19920;-69
2023/07/07 10:21:02;;;;;;;3.67;1.48;;;24.20;98.00;;;;;;5049609;28;20098;-70
2023/07/07 10:23:29;;;;;;;3.22;1.30;;;24.40;97.50;;;;;;5038715;28;20052;-70
2023/07/07 10:28:24;;;;;;;5.40;2.15;;;24.50;97.20;;;;;;5100135;28;20044;-68
2023/07/07 10:30:51;;;;;;;3.08;1.40;;;24.60;95.90;;;;;;5089565;28;20396;-67
2023/07/07 10:33:20;;;;;;;4.93;1.90;;;24.60;95.20;;;;;;5090149;28;20331;-68
2023/07/07 10:35:46;;;;;;;3.58;1.83;;;24.60;95.70;;;;;;5097804;28;20051;-68
2023/07/07 10:38:12;;;;;;;3.28;1.40;;;24.70;95.40;;;;;;5103979;28;20072;-68
2023/07/07 10:40:41;;;;;;;4.13;1.75;;;24.80;94.90;;;;;;5069581;28;20032;-67
2023/07/07 10:43:14;;;;;;;3.17;1.58;;;24.90;94.10;;;;;;5079073;28;20048;-68
2023/07/07 10:45:44;;;;;;;4.70;1.65;;;24.90;94.20;;;;;;5100717;28;20451;-68
2023/07/07 10:48:15;;;;;;;4.18;1.58;;;24.90;94.10;;;;;;5106252;28;20492;-68
2023/07/07 10:51:16;;;;;;;3.55;1.38;;;25.10;94.30;;;;;;5082872;28;20114;-68
2023/07/07 10:54:06;;;;;;;2.83;1.33;;;25.20;92.20;;;;;;5004001;28;20081;-68
2023/07/07 10:56:41;;;;;;;4.88;1.45;;;25.20;91.60;;;;;;5072231;28;20126;-68
2023/07/07 10:59:21;;;;;;;4.18;1.48;;;25.20;91.20;;;;;;5085879;28;20040;-68
2023/07/07 11:01:58;;;;;;;2.83;1.58;;;25.20;91.80;;;;;;5101974;28;20120;-68
2023/07/07 11:04:50;;;;;;;3.35;1.67;;;25.30;91.90;;;;;;5089931;28;20075;-68
2023/07/07 11:07:19;;;;;;;2.83;1.65;;;25.40;91.60;;;;;;5082149;28;20440;-68
2023/07/07 11:10:14;;;;;;;3.13;1.40;;;25.50;92.00;;;;;;5104917;28;20047;-68
2023/07/07 11:12:49;;;;;;;5.65;1.67;;;25.50;91.30;;;;;;5012999;28;20046;-68
2023/07/07 11:15:42;;;;;;;4.47;1.70;;;25.60;90.60;;;;;;5103539;28;20414;-68
2023/07/07 11:18:23;;;;;;;2.95;1.45;;;25.70;91.20;;;;;;5070851;28;20054;-68
2023/07/07 11:21:07;;;;;;;3.08;1.70;;;25.80;91.00;;;;;;5086945;28;20043;-68
2023/07/07 11:23:38;;;;;;;3.72;1.50;;;25.90;91.20;;;;;;5067469;28;20127;-67
2023/07/07 11:26:26;;;;;;;3.42;1.60;;;25.90;90.60;;;;;;5086007;28;20044;-68
2023/07/07 11:29:25;;;;;;;4.38;1.27;;;26.00;90.20;;;;;;5108240;28;20036;-67
2023/07/07 11:32:10;;;;;;;3.85;1.60;;;26.10;89.10;;;;;;5075747;28;20074;-67
2023/07/07 11:34:42;;;;;;;2.67;1.30;;;26.20;90.20;;;;;;5096604;28;20150;-68
2023/07/07 11:37:21;;;;;;;2.78;1.40;;;26.30;90.40;;;;;;5088792;28;20047;-68
2023/07/07 11:40:02;;;;;;;8.30;1.83;;;26.30;90.00;;;;;;5096155;28;20453;-68
2023/07/07 11:43:14;;;;;;;4.43;1.70;;;26.40;89.20;;;;;;5065917;28;20039;-68
2023/07/07 11:46:10;;;;;;;5.90;1.90;;;26.50;90.00;;;;;;5097906;28;20485;-68
2023/07/07 11:49:02;;;;;;;4.63;1.48;;;26.50;90.20;;;;;;5079693;28;20036;-68
2023/07/07 11:51:28;;;;;;;2.80;1.58;;;26.60;89.80;;;;;;5081092;28;20049;-68
2023/07/07 11:54:05;;;;;;;2.88;1.58;;;26.70;90.50;;;;;;5090348;28;20511;-68
2023/07/07 11:56:37;;;;;;;3.35;1.40;;;26.70;89.40;;;;;;5084267;28;20118;-67
2023/07/07 11:59:29;;;;;;;2.97;1.50;;;26.80;87.20;;;;;;5098240;28;20058;-68
2023/07/07 12:01:57;;;;;;;2.95;1.50;;;26.80;88.00;;;;;;5090341;28;20068;-68
2023/07/07 12:04:39;;;;;;;6.15;1.77;;;26.90;88.00;;;;;;5072104;28;20035;-68
2023/07/07 12:07:20;;;;;;;4.15;1.50;;;27.00;86.80;;;;;;5107838;28;20046;-68
2023/07/07 12:09:53;;;;;;;4.03;1.85;;;27.20;86.20;;;;;;5086329;28;20075;-67
2023/07/07 12:12:38;;;;;;;4.75;1.85;;;27.20;86.00;;;;;;5082776;28;20461;-68
2023/07/07 12:15:17;;;;;;;5.32;1.67;;;27.30;85.30;;;;;;5081373;28;20077;-68
2023/07/07 12:17:54;;;;;;;3.20;2.10;;;27.40;84.90;;;;;;5090561;28;20039;-68
2023/07/07 12:20:30;;;;;;;2.70;1.52;;;27.50;82.10;;;;;;5084105;28;20048;-68
2023/07/07 12:23:00;;;;;;;4.83;1.80;;;27.50;80.30;;;;;;5083132;28;20052;-68
2023/07/07 12:25:29;;;;;;;3.17;1.92;;;27.40;82.30;;;;;;5101599;28;20260;-68
2023/07/07 12:27:56;;;;;;;5.93;1.95;;;27.50;83.60;;;;;;5108403;28;20331;-68
2023/07/07 12:30:31;;;;;;;4.10;1.85;;;27.60;83.10;;;;;;5093195;28;20051;-68
2023/07/07 12:32:58;;;;;;;5.95;1.92;;;27.60;82.10;;;;;;5108052;28;20515;-68
2023/07/07 12:35:42;;;;;;;6.13;1.90;;;27.70;81.10;;;;;;5107968;28;20081;-68
2023/07/07 12:38:21;;;;;;;5.15;1.80;;;27.80;79.40;;;;;;5079176;28;20043;-68
2023/07/07 12:40:48;;;;;;;4.50;1.33;;;27.90;78.80;;;;;;5066236;28;20105;-68
2023/07/07 12:43:27;;;;;;;4.05;1.88;;;28.00;78.60;;;;;;5080872;28;20481;-68
2023/07/07 12:45:55;;;;;;;5.63;1.92;;;28.10;78.50;;;;;;5091294;28;20573;-68
2023/07/07 12:48:27;;;;;;;5.90;2.00;;;28.20;78.50;;;;;;5097578;28;20242;-69
2023/07/07 12:50:59;;;;;;;4.28;1.88;;;28.20;77.70;;;;;;5073749;28;20157;-68
2023/07/07 12:53:43;;;;;;;4.05;1.70;;;28.30;77.30;;;;;;5100999;28;20062;-68
2023/07/07 12:56:09;;;;;;;4.80;1.77;;;28.30;73.30;;;;;;5086005;28;20051;-68
2023/07/07 12:58:45;;;;;;;3.72;1.50;;;28.40;74.50;;;;;;5100855;28;20087;-68
2023/07/07 13:01:10;;;;;;;;;;;28.40;73.30;;;;;;5091062;28;20293;-68
2023/07/07 13:04:07;;;;;;;4.13;1.70;;;28.40;73.50;;;;;;5085313;28;19922;-68
2023/07/07 13:06:51;;;;;;;3.22;1.67;;;28.40;73.50;;;;;;5077925;28;20505;-68
2023/07/07 13:09:20;;;;;;;4.10;1.52;;;28.50;72.90;;;;;;5072589;28;20052;-68
2023/07/07 13:11:49;;;;;;;3.53;1.80;;;28.50;72.20;;;;;;5050333;28;20037;-68
2023/07/07 13:14:36;;;;;;;3.13;1.50;;;28.50;72.40;;;;;;5058789;28;20505;-68